createdAt,value
2019-05-21T00:01:37.282Z,81.59
2019-05-21T00:04:06.794Z,81.61
2019-05-21T00:06:36.195Z,81.78
2019-05-21T00:09:06.949Z,81.95
2019-05-21T00:11:36.535Z,82.17
2019-05-21T00:14:06.084Z,82.35
2019-05-21T00:16:35.485Z,82.69
2019-05-21T00:19:07.281Z,82.94
2019-05-21T00:21:38.091Z,83.03
2019-05-21T00:24:07.529Z,83.08
2019-05-21T00:26:37.027Z,83.15
2019-05-21T00:29:41.850Z,83.26
2019-05-21T00:32:47.146Z,83.40
2019-05-21T00:35:53.445Z,83.71
2019-05-21T00:38:58.530Z,83.55
2019-05-21T00:42:00.990Z,83.64
2019-05-21T00:44:35.519Z,83.50
2019-05-21T00:47:07.092Z,83.78
2019-05-21T00:49:36.483Z,83.85
2019-05-21T00:52:08.561Z,83.87
2019-05-21T00:54:37.793Z,83.77
2019-05-21T00:57:10.155Z,84.13
2019-05-21T00:59:39.519Z,84.22
2019-05-21T01:02:09.069Z,84.63
2019-05-21T01:04:41.593Z,84.86
2019-05-21T01:07:11.018Z,84.98
2019-05-21T01:09:40.651Z,85.22
2019-05-21T01:12:10.019Z,85.55
2019-05-21T01:14:39.441Z,85.50
2019-05-21T01:17:08.964Z,85.53
2019-05-21T01:19:38.626Z,85.74
2019-05-21T01:22:08.186Z,85.93
2019-05-21T01:24:37.721Z,86.02
2019-05-21T01:27:07.259Z,86.28
2019-05-21T01:29:36.840Z,86.36
2019-05-21T01:32:06.559Z,86.28
2019-05-21T01:34:36.401Z,86.50
2019-05-21T01:37:07.633Z,86.65
2019-05-21T01:39:40.013Z,86.68
2019-05-21T01:42:09.387Z,86.50
2019-05-21T01:44:38.763Z,86.73
2019-05-21T01:47:08.322Z,86.65
2019-05-21T01:49:37.850Z,86.95
2019-05-21T01:52:07.235Z,87.23
2019-05-21T01:54:36.733Z,87.30
2019-05-21T01:57:06.244Z,87.36
2019-05-21T01:59:37.221Z,87.09
2019-05-21T02:02:06.705Z,86.90
2019-05-21T02:04:36.224Z,87.27
2019-05-21T02:07:05.829Z,86.79
2019-05-21T02:09:54.229Z,86.29
2019-05-21T02:12:23.615Z,86.32
2019-05-21T02:14:52.990Z,86.17
2019-05-21T02:17:22.450Z,86.21
2019-05-21T02:19:51.842Z,86.26
2019-05-21T02:22:30.563Z,85.90
2019-05-21T02:25:00.008Z,85.83
2019-05-21T02:27:29.410Z,85.59
2019-05-21T02:29:58.883Z,85.94
2019-05-21T02:32:28.613Z,85.75
2019-05-21T02:34:58.138Z,85.65
2019-05-21T02:37:28.120Z,86.05
2019-05-21T02:39:57.699Z,86.17
2019-05-21T02:42:27.422Z,86.31
2019-05-21T02:44:56.828Z,86.30
2019-05-21T02:47:26.236Z,86.44
2019-05-21T02:49:55.609Z,86.31
2019-05-21T02:52:25.365Z,86.38
2019-05-21T02:54:54.800Z,86.24
2019-05-21T02:57:27.437Z,86.37
2019-05-21T02:59:58.688Z,86.48
2019-05-21T03:02:33.911Z,86.60
2019-05-21T03:05:03.420Z,86.66
2019-05-21T03:07:33.016Z,86.90
2019-05-21T03:10:02.441Z,86.47
2019-05-21T03:12:31.843Z,86.20
2019-05-21T03:15:01.281Z,86.11
2019-05-21T03:17:30.811Z,85.82
2019-05-21T03:20:00.287Z,85.51
2019-05-21T03:22:29.706Z,84.54
2019-05-21T03:25:02.420Z,83.75
2019-05-21T03:27:30.473Z,83.04
2019-05-21T03:29:59.917Z,82.20
2019-05-21T03:32:29.318Z,82.15
2019-05-21T03:34:58.782Z,82.71
2019-05-21T03:37:28.448Z,83.29
2019-05-21T03:39:58.103Z,83.80
2019-05-21T03:42:27.798Z,84.25
2019-05-21T03:45:00.444Z,84.70
2019-05-21T03:47:28.442Z,84.90
2019-05-21T03:49:58.429Z,85.12
2019-05-21T03:52:27.956Z,84.83
2019-05-21T03:54:57.379Z,84.45
2019-05-21T03:57:28.130Z,83.72
2019-05-21T03:59:57.626Z,82.35
2019-05-21T04:02:27.068Z,81.26
2019-05-21T04:04:57.427Z,80.81
2019-05-21T04:07:26.787Z,80.00
2019-05-21T04:09:56.211Z,79.31
2019-05-21T04:12:26.079Z,79.26
2019-05-21T04:14:59.636Z,79.48
2019-05-21T04:17:46.049Z,79.94
2019-05-21T04:20:15.563Z,80.10
2019-05-21T04:22:54.269Z,80.17
2019-05-21T04:25:24.143Z,80.14
2019-05-21T04:27:53.546Z,80.01
2019-05-21T04:30:22.973Z,80.09
2019-05-21T04:32:52.507Z,79.74
2019-05-21T04:35:22.593Z,79.80
2019-05-21T04:37:53.045Z,79.75
2019-05-21T04:40:23.639Z,79.53
2019-05-21T04:42:53.029Z,79.58
2019-05-21T04:45:22.583Z,78.08
2019-05-21T04:47:51.964Z,77.90
2019-05-21T04:50:21.368Z,77.60
2019-05-21T04:52:50.767Z,77.17
2019-05-21T04:55:20.178Z,76.64
2019-05-21T04:57:49.552Z,76.23
2019-05-21T05:00:19.104Z,75.01
2019-05-21T05:02:48.511Z,74.20
2019-05-21T05:05:18.140Z,74.26
2019-05-21T05:07:47.547Z,73.58
2019-05-21T05:10:17.515Z,72.32
2019-05-21T05:12:48.741Z,72.43
2019-05-21T05:15:18.348Z,72.71
2019-05-21T05:17:47.970Z,72.89
2019-05-21T05:20:18.193Z,73.19
2019-05-21T05:22:47.660Z,73.89
2019-05-21T05:25:17.151Z,74.08
2019-05-21T05:27:46.531Z,74.25
2019-05-21T05:30:16.550Z,74.32
2019-05-21T05:32:48.787Z,74.66
2019-05-21T05:35:18.213Z,74.27
2019-05-21T05:37:49.043Z,74.09
2019-05-21T05:40:22.301Z,73.33
2019-05-21T05:42:51.758Z,72.43
2019-05-21T05:45:24.406Z,72.47
2019-05-21T05:47:53.795Z,71.29
2019-05-21T05:50:29.161Z,70.85
2019-05-21T05:52:58.565Z,70.29
2019-05-21T05:55:32.806Z,70.25
2019-05-21T05:58:03.442Z,69.41
2019-05-21T06:00:33.843Z,68.88
2019-05-21T06:03:03.366Z,67.85
2019-05-21T06:05:32.892Z,67.17
2019-05-21T06:08:02.401Z,66.27
2019-05-21T06:10:32.317Z,65.68
2019-05-21T06:13:01.842Z,65.52
2019-05-21T06:15:31.400Z,65.41
2019-05-21T06:18:00.917Z,66.19
2019-05-21T06:20:30.495Z,65.57
2019-05-21T06:23:01.571Z,65.91
2019-05-21T06:25:35.201Z,66.33
2019-05-21T06:28:06.283Z,65.31
2019-05-21T06:30:36.162Z,66.23
2019-05-21T06:33:09.306Z,65.04
2019-05-21T06:35:38.713Z,64.60
2019-05-21T06:38:17.827Z,63.40
2019-05-21T06:40:40.770Z,63.54
2019-05-21T06:43:10.181Z,64.13
2019-05-21T06:45:39.647Z,64.54
2019-05-21T06:48:09.045Z,64.04
2019-05-21T06:50:38.525Z,64.22
2019-05-21T06:53:10.644Z,64.87
2019-05-21T06:55:40.102Z,64.59
2019-05-21T06:58:09.495Z,64.00
2019-05-21T07:00:39.481Z,64.48
2019-05-21T07:03:08.837Z,63.63
2019-05-21T07:05:38.252Z,63.85
2019-05-21T07:08:08.077Z,64.17
2019-05-21T07:10:37.665Z,63.58
2019-05-21T07:13:09.845Z,63.29
2019-05-21T07:15:39.408Z,63.30
2019-05-21T07:18:23.224Z,62.64
2019-05-21T07:20:52.681Z,62.81
2019-05-21T07:23:22.077Z,62.38
2019-05-21T07:25:51.473Z,62.37
2019-05-21T07:28:21.284Z,62.54
2019-05-21T07:30:50.692Z,61.98
2019-05-21T07:33:22.225Z,62.53
2019-05-21T07:35:51.672Z,62.24
2019-05-21T07:38:24.188Z,61.52
2019-05-21T07:40:53.675Z,61.73
2019-05-21T07:43:23.131Z,61.46
2019-05-21T07:45:52.532Z,62.15
2019-05-21T07:48:21.945Z,61.24
2019-05-21T07:50:51.399Z,60.77
2019-05-21T07:53:20.932Z,60.40
2019-05-21T07:55:50.329Z,59.70
2019-05-21T07:58:22.546Z,59.78
2019-05-21T08:00:51.936Z,59.11
2019-05-21T08:03:21.487Z,59.18
2019-05-21T08:05:51.218Z,59.18
2019-05-21T08:08:20.650Z,58.73
2019-05-21T08:10:50.047Z,59.39
2019-05-21T08:13:19.741Z,58.47
2019-05-21T08:15:49.121Z,58.90
2019-05-21T08:18:18.621Z,59.15
2019-05-21T08:20:48.054Z,58.87
2019-05-21T08:23:18.088Z,58.40
2019-05-21T08:25:48.380Z,58.63
2019-05-21T08:28:17.970Z,59.23
2019-05-21T08:30:47.348Z,59.49
2019-05-21T08:33:19.686Z,59.44
2019-05-21T08:35:49.149Z,60.00
2019-05-21T08:38:20.359Z,60.29
2019-05-21T08:40:49.795Z,60.03
2019-05-21T08:43:22.111Z,60.21
2019-05-21T08:45:50.681Z,59.69
2019-05-21T08:48:20.135Z,59.65
2019-05-21T08:50:49.543Z,59.58
2019-05-21T08:53:19.495Z,59.77
2019-05-21T08:55:48.947Z,59.39
2019-05-21T08:58:18.502Z,58.97
2019-05-21T09:00:47.911Z,59.19
2019-05-21T09:03:17.461Z,58.92
2019-05-21T09:05:46.979Z,58.73
2019-05-21T09:08:16.385Z,58.46
2019-05-21T09:10:45.925Z,57.98
2019-05-21T09:13:18.046Z,57.72
2019-05-21T09:15:46.952Z,57.72
2019-05-21T09:18:16.342Z,57.62
2019-05-21T09:20:45.925Z,57.00
2019-05-21T09:23:22.175Z,57.91
2019-05-21T09:25:51.576Z,57.54
2019-05-21T09:28:21.010Z,58.14
2019-05-21T09:30:50.387Z,58.46
2019-05-21T09:33:20.560Z,58.67
2019-05-21T09:35:49.967Z,59.56
2019-05-21T09:38:20.170Z,60.57
2019-05-21T09:40:49.657Z,61.22
2019-05-21T09:43:19.365Z,61.99
2019-05-21T09:45:48.746Z,62.79
2019-05-21T09:48:18.200Z,63.50
2019-05-21T09:50:47.618Z,63.88
2019-05-21T09:53:17.492Z,64.29
2019-05-21T09:55:46.956Z,64.38
2019-05-21T09:58:33.066Z,64.56
2019-05-21T10:01:21.482Z,64.07
2019-05-21T10:03:57.588Z,64.46
2019-05-21T10:06:27.292Z,64.26
2019-05-21T10:08:56.824Z,65.00
2019-05-21T10:11:26.199Z,65.79
2019-05-21T10:13:55.631Z,65.52
2019-05-21T10:16:25.116Z,65.15
2019-05-21T10:18:54.467Z,64.22
2019-05-21T10:21:23.982Z,63.89
2019-05-21T10:23:53.375Z,63.17
2019-05-21T10:26:22.811Z,62.35
2019-05-21T10:28:52.296Z,62.50
2019-05-21T10:31:21.731Z,61.34
2019-05-21T10:33:51.142Z,60.85
2019-05-21T10:36:20.605Z,59.97
2019-05-21T10:38:50.106Z,59.76
2019-05-21T10:41:25.419Z,59.41
2019-05-21T10:43:54.768Z,59.11
2019-05-21T10:46:24.199Z,58.77
2019-05-21T10:48:53.832Z,59.59
2019-05-21T10:51:23.229Z,58.99
2019-05-21T10:53:52.687Z,59.06
2019-05-21T10:56:22.191Z,58.27
2019-05-21T10:58:51.602Z,58.37
2019-05-21T11:01:27.953Z,58.07
2019-05-21T11:04:16.934Z,58.25
2019-05-21T11:06:47.396Z,58.54
2019-05-21T11:09:21.338Z,57.67
2019-05-21T11:11:50.809Z,56.53
2019-05-21T11:14:20.506Z,57.25
2019-05-21T11:16:50.060Z,56.10
2019-05-21T11:19:19.527Z,55.46
2019-05-21T11:21:48.992Z,55.97
2019-05-21T11:24:18.438Z,55.89
2019-05-21T11:26:47.997Z,56.21
2019-05-21T11:29:17.561Z,56.08
2019-05-21T11:31:56.260Z,55.66
2019-05-21T11:34:18.214Z,55.17
2019-05-21T11:36:47.709Z,55.96
2019-05-21T11:39:17.286Z,55.88
2019-05-21T11:41:47.326Z,55.72
2019-05-21T11:44:17.430Z,55.76
2019-05-21T11:46:46.837Z,55.91
2019-05-21T11:49:17.696Z,55.23
2019-05-21T11:51:47.180Z,55.08
2019-05-21T11:54:16.613Z,55.27
2019-05-21T11:56:46.013Z,54.75
2019-05-21T11:59:15.476Z,54.78
2019-05-21T12:01:44.897Z,54.67
2019-05-21T12:04:14.269Z,54.50
2019-05-21T12:06:43.735Z,54.07
2019-05-21T12:09:13.190Z,53.32
2019-05-21T12:11:42.646Z,53.22
2019-05-21T12:14:12.147Z,52.09
2019-05-21T12:16:41.684Z,52.30
2019-05-21T12:19:11.154Z,52.07
2019-05-21T12:21:41.242Z,51.20
2019-05-21T12:24:10.702Z,50.52
2019-05-21T12:26:42.950Z,50.51
2019-05-21T12:29:13.578Z,50.01
2019-05-21T12:31:43.024Z,49.83
2019-05-21T12:34:12.445Z,49.18
2019-05-21T12:36:42.234Z,48.85
2019-05-21T12:39:14.543Z,48.47
2019-05-21T12:41:44.313Z,49.20
2019-05-21T12:44:23.045Z,48.98
2019-05-21T12:46:52.605Z,49.48
2019-05-21T12:49:22.467Z,49.12
2019-05-21T12:51:51.833Z,48.77
2019-05-21T12:54:21.238Z,49.21
2019-05-21T12:56:50.732Z,48.63
2019-05-21T12:59:22.838Z,48.75
2019-05-21T13:01:52.381Z,49.23
2019-05-21T13:04:23.282Z,49.22
2019-05-21T13:06:52.760Z,49.17
2019-05-21T13:09:32.160Z,49.55
2019-05-21T13:11:53.598Z,49.55
2019-05-21T13:14:23.133Z,49.58
2019-05-21T13:16:52.630Z,49.44
2019-05-21T13:19:22.150Z,48.92
2019-05-21T13:21:51.530Z,48.16
2019-05-21T13:24:21.278Z,47.83
2019-05-21T13:26:50.698Z,46.86
2019-05-21T13:29:20.042Z,47.50
2019-05-21T13:31:49.484Z,47.51
2019-05-21T13:34:18.882Z,46.96
2019-05-21T13:36:48.273Z,47.69
2019-05-21T13:39:17.658Z,47.64
2019-05-21T13:41:48.027Z,47.52
2019-05-21T13:44:17.407Z,47.29
2019-05-21T13:46:47.340Z,46.18
2019-05-21T13:49:16.705Z,46.97
2019-05-21T13:51:46.099Z,47.10
2019-05-21T13:54:15.617Z,47.69
2019-05-21T13:56:45.081Z,48.22
2019-05-21T13:59:14.788Z,48.54
2019-05-21T14:01:45.659Z,48.74
2019-05-21T14:04:15.833Z,48.94
2019-05-21T14:06:45.233Z,49.34
2019-05-21T14:09:14.740Z,49.81
2019-05-21T14:11:47.090Z,49.91
2019-05-21T14:14:16.585Z,49.56
2019-05-21T14:16:55.328Z,49.35
2019-05-21T14:19:24.754Z,49.71
2019-05-21T14:21:55.369Z,49.43
2019-05-21T14:24:24.780Z,50.19
2019-05-21T14:26:57.145Z,50.27
2019-05-21T14:29:26.515Z,49.97
2019-05-21T14:31:55.955Z,50.19
2019-05-21T14:34:25.427Z,50.15
2019-05-21T14:36:54.809Z,49.21
2019-05-21T14:39:24.347Z,49.22
2019-05-21T14:41:54.085Z,49.19
2019-05-21T14:44:23.523Z,49.31
2019-05-21T14:46:54.095Z,49.25
2019-05-21T14:49:26.507Z,49.29
2019-05-21T14:51:55.942Z,49.54
2019-05-21T14:54:27.125Z,50.32
2019-05-21T14:57:14.323Z,49.43
2019-05-21T14:59:46.542Z,50.45
2019-05-21T15:02:15.909Z,50.02
2019-05-21T15:04:45.808Z,49.82
2019-05-21T15:07:15.435Z,49.99
2019-05-21T15:09:44.859Z,49.50
2019-05-21T15:12:16.548Z,49.68
2019-05-21T15:14:46.010Z,49.64
2019-05-21T15:17:15.419Z,48.96
2019-05-21T15:19:57.075Z,48.79
2019-05-21T15:22:27.872Z,49.04
2019-05-21T15:24:59.230Z,49.00
2019-05-21T15:27:28.853Z,48.83
2019-05-21T15:29:58.530Z,46.73
2019-05-21T15:32:28.898Z,45.79
2019-05-21T15:34:59.338Z,45.19
2019-05-21T15:37:31.184Z,45.18
2019-05-21T15:40:01.715Z,44.77
2019-05-21T15:42:31.371Z,43.72
2019-05-21T15:45:03.971Z,42.17
2019-05-21T15:47:34.305Z,41.82
2019-05-21T15:50:04.164Z,40.21
2019-05-21T15:52:33.670Z,39.94
2019-05-21T15:55:07.283Z,39.54
2019-05-21T15:57:37.223Z,40.96
2019-05-21T16:00:08.890Z,40.96
2019-05-21T16:02:42.499Z,40.56
2019-05-21T16:05:12.110Z,40.85
2019-05-21T16:07:44.714Z,40.72
2019-05-21T16:10:14.589Z,40.30
2019-05-21T16:12:44.147Z,39.99
2019-05-21T16:15:13.614Z,40.15
2019-05-21T16:17:48.203Z,40.27
2019-05-21T16:20:20.839Z,40.51
2019-05-21T16:22:50.809Z,41.17
2019-05-21T16:25:21.796Z,40.79
2019-05-21T16:27:51.327Z,40.74
2019-05-21T16:30:20.790Z,40.48
2019-05-21T16:32:50.193Z,40.71
2019-05-21T16:35:19.914Z,40.66
2019-05-21T16:37:49.662Z,41.14
2019-05-21T16:40:19.414Z,41.26
2019-05-21T16:42:49.027Z,41.11
2019-05-21T16:45:19.689Z,40.58
2019-05-21T16:47:49.924Z,40.58
2019-05-21T16:50:19.613Z,40.37
2019-05-21T16:52:49.147Z,40.61
2019-05-21T16:55:18.980Z,40.94
2019-05-21T16:57:48.476Z,40.92
2019-05-21T17:00:18.964Z,41.24
2019-05-21T17:02:48.537Z,40.74
2019-05-21T17:05:18.065Z,40.15
2019-05-21T17:07:47.470Z,40.25
2019-05-21T17:10:18.313Z,40.29
2019-05-21T17:12:47.919Z,40.58
2019-05-21T17:15:17.428Z,40.16
2019-05-21T17:17:47.046Z,40.46
2019-05-21T17:20:16.960Z,41.06
2019-05-21T17:22:46.508Z,41.66
2019-05-21T17:25:15.947Z,41.98
2019-05-21T17:27:46.165Z,41.71
2019-05-21T17:30:15.844Z,42.22
2019-05-21T17:32:45.725Z,42.84
2019-05-21T17:35:15.380Z,43.58
2019-05-21T17:37:44.823Z,44.66
2019-05-21T17:40:15.666Z,45.54
2019-05-21T17:42:45.387Z,45.72
2019-05-21T17:45:14.973Z,46.14
2019-05-21T17:47:44.412Z,46.55
2019-05-21T17:50:14.810Z,46.75
2019-05-21T17:52:47.304Z,46.53
2019-05-21T17:55:16.973Z,46.31
2019-05-21T17:57:46.420Z,46.54
2019-05-21T18:00:18.465Z,46.97
2019-05-21T18:02:48.083Z,47.48
2019-05-21T18:05:20.986Z,47.40
2019-05-21T18:07:50.513Z,47.81
2019-05-21T18:10:20.064Z,48.61
2019-05-21T18:12:50.317Z,49.31
2019-05-21T18:15:23.687Z,49.73
2019-05-21T18:17:53.223Z,49.88
2019-05-21T18:20:25.878Z,50.16
2019-05-21T18:22:55.737Z,50.98
2019-05-21T18:25:25.325Z,51.28
2019-05-21T18:27:54.792Z,51.04
2019-05-21T18:30:24.451Z,51.55
2019-05-21T18:32:54.559Z,52.37
2019-05-21T18:35:24.005Z,53.24
2019-05-21T18:37:53.453Z,53.88
2019-05-21T18:40:22.973Z,54.58
2019-05-21T18:43:11.547Z,55.13
2019-05-21T18:45:41.273Z,55.74
2019-05-21T18:48:11.248Z,56.29
2019-05-21T18:50:40.682Z,56.71
2019-05-21T18:53:12.810Z,57.04
2019-05-21T18:55:42.192Z,57.79
2019-05-21T18:58:11.825Z,58.29
2019-05-21T19:00:41.466Z,58.87
2019-05-21T19:03:11.144Z,59.42
2019-05-21T19:05:40.572Z,59.78
2019-05-21T19:08:10.146Z,60.11
2019-05-21T19:10:39.761Z,60.61
2019-05-21T19:13:09.223Z,60.71
2019-05-21T19:15:38.905Z,61.43
2019-05-21T19:18:08.270Z,61.78
2019-05-21T19:20:37.776Z,62.09
2019-05-21T19:23:07.418Z,62.56
2019-05-21T19:25:36.991Z,63.03
2019-05-21T19:28:06.650Z,63.39
2019-05-21T19:30:36.193Z,63.75
2019-05-21T19:33:05.925Z,64.20
2019-05-21T19:35:35.473Z,64.87
2019-05-21T19:38:08.392Z,65.24
2019-05-21T19:40:38.094Z,65.60
2019-05-21T19:43:07.596Z,65.81
2019-05-21T19:45:37.177Z,66.40
2019-05-21T19:48:09.127Z,66.84
2019-05-21T19:50:39.075Z,67.12
2019-05-21T19:53:09.400Z,67.38
2019-05-21T19:55:39.587Z,67.72
2019-05-21T19:58:09.359Z,68.11
2019-05-21T20:00:43.030Z,68.37
2019-05-21T20:03:12.912Z,68.75
2019-05-21T20:05:43.159Z,69.01
2019-05-21T20:08:12.723Z,69.13
2019-05-21T20:10:42.926Z,69.51
2019-05-21T20:13:12.659Z,69.81
2019-05-21T20:15:43.322Z,70.03
2019-05-21T20:18:13.701Z,70.16
2019-05-21T20:20:44.517Z,70.32
2019-05-21T20:23:16.202Z,70.52
2019-05-21T20:25:56.328Z,70.73
2019-05-21T20:28:23.782Z,70.98
2019-05-21T20:30:54.591Z,71.08
2019-05-21T20:33:35.517Z,71.23
2019-05-21T20:36:08.465Z,71.31
2019-05-21T20:38:38.651Z,71.51
2019-05-21T20:41:08.404Z,71.70
2019-05-21T20:43:38.044Z,71.95
2019-05-21T20:46:08.146Z,72.23
2019-05-21T20:48:38.852Z,72.44
2019-05-21T20:51:09.141Z,72.48
2019-05-21T20:53:38.603Z,72.69
2019-05-21T20:56:10.689Z,73.01
2019-05-21T20:58:40.676Z,73.09
2019-05-21T21:01:10.997Z,73.30
2019-05-21T21:03:41.168Z,73.42
2019-05-21T21:06:12.533Z,73.54
2019-05-21T21:08:44.198Z,73.70
2019-05-21T21:11:14.115Z,73.94
2019-05-21T21:13:44.819Z,74.14
2019-05-21T21:16:17.529Z,74.35
2019-05-21T21:18:48.538Z,74.59
2019-05-21T21:21:18.376Z,74.84
2019-05-21T21:23:49.466Z,75.06
2019-05-21T21:26:19.512Z,75.29
2019-05-21T21:28:49.157Z,75.42
2019-05-21T21:31:19.039Z,75.66
2019-05-21T21:33:48.444Z,75.86
2019-05-21T21:36:18.309Z,76.18
2019-05-21T21:38:50.853Z,76.50
2019-05-21T21:41:20.280Z,76.64
2019-05-21T21:43:49.969Z,76.62
2019-05-21T21:46:19.800Z,76.84
2019-05-21T21:48:51.110Z,76.83
2019-05-21T21:51:20.870Z,76.66
2019-05-21T21:53:50.528Z,76.75
2019-05-21T21:56:19.980Z,76.67
2019-05-21T21:58:51.615Z,76.74
2019-05-21T22:01:36.423Z,76.76
2019-05-21T22:04:10.744Z,77.10
2019-05-21T22:06:44.535Z,77.26
2019-05-21T22:09:31.141Z,77.45
2019-05-21T22:12:22.237Z,77.55
2019-05-21T22:15:02.968Z,77.79
2019-05-21T22:17:32.473Z,77.84
2019-05-21T22:20:05.264Z,78.08
2019-05-21T22:22:36.002Z,78.32
2019-05-21T22:25:08.174Z,78.53
2019-05-21T22:27:37.496Z,78.67
2019-05-21T22:30:10.988Z,79.00
2019-05-21T22:32:40.867Z,79.21
2019-05-21T22:35:10.607Z,79.32
2019-05-21T22:37:40.383Z,79.32
2019-05-21T22:40:11.668Z,79.60
2019-05-21T22:42:41.372Z,79.65
2019-05-21T22:45:11.932Z,79.68
2019-05-21T22:47:41.889Z,79.73
2019-05-21T22:50:12.249Z,79.70
2019-05-21T22:52:42.082Z,79.69
2019-05-21T22:55:11.868Z,79.93
2019-05-21T22:57:41.601Z,79.98
2019-05-21T23:00:11.505Z,80.12
2019-05-21T23:02:42.835Z,80.22
2019-05-21T23:05:13.533Z,80.17
2019-05-21T23:08:00.246Z,80.01
2019-05-21T23:10:28.886Z,80.00
2019-05-21T23:13:00.895Z,80.11
2019-05-21T23:15:30.352Z,80.21
2019-05-21T23:18:02.660Z,80.41
2019-05-21T23:20:34.085Z,80.69
2019-05-21T23:23:03.565Z,80.88
2019-05-21T23:25:34.790Z,80.96
2019-05-21T23:28:05.275Z,81.09
2019-05-21T23:30:35.642Z,81.13
2019-05-21T23:33:06.383Z,81.36
2019-05-21T23:35:39.727Z,81.49
2019-05-21T23:38:09.868Z,81.61
2019-05-21T23:40:39.330Z,81.83
2019-05-21T23:43:11.079Z,81.94
2019-05-21T23:45:43.992Z,82.13
2019-05-21T23:48:15.861Z,82.42
2019-05-21T23:50:45.952Z,82.57
2019-05-21T23:53:17.832Z,82.88
2019-05-21T23:55:47.670Z,83.21
2019-05-21T23:58:20.870Z,83.30
